Airport View

Enter AWOS ICAO identifier for current METAR.

ex. KFNL

KMRN 262155Z AUTO 20003KT 10SM SCT110 15/06 A2971 RMK AO2 T01450056

26 Feb 2020 22:05

Frequency: 124.175

Phone: 828-757-0788

Other Area AWOS: KHKY - KTNB - KFQD - KIPJ

TAF AMD KHKY 262035Z 2621/2718 23011KT P6SM VCSH SCT025 BKN040 FM270100 28012G19KT P6SM BKN060 FM271100 30011KT P6SM FEW250 FM271300 29012G19KT P6SM SKC